Time;durP1;ratioP1;P1;durP2;ratioP2;P2;SDS_P1;SDS_P2;PMS_P1;PMS_P2;Temp;Humidity;BMP_temperature;BMP_pressure;BME280_temperature;BME280_humidity;BME280_pressure;Samples;Min_cycle;Max_cycle;Signal;HPM_P1;HPM_P2
2023/06/13 00:01:48;;;;;;;4.93;3.80;;;13.50;71.40;13.50;100666.00;;;;4989985;28;83777;-67
2023/06/13 00:04:23;;;;;;;6.30;4.13;;;13.50;71.60;13.50;100667.00;;;;4989772;28;84521;-67
2023/06/13 00:06:54;;;;;;;4.10;3.40;;;13.50;72.10;13.40;100664.00;;;;4993783;28;83144;-67
2023/06/13 00:09:22;;;;;;;3.90;3.30;;;13.40;72.50;13.30;100655.00;;;;4993877;28;82871;-67
2023/06/13 00:11:51;;;;;;;3.90;3.60;;;13.30;72.70;13.20;100661.00;;;;4989341;28;82501;-67
2023/06/13 00:14:19;;;;;;;2.90;2.70;;;13.20;73.00;13.10;100653.00;;;;4990507;28;82968;-67
2023/06/13 00:16:50;;;;;;;11.73;4.17;;;13.20;73.30;13.10;100645.00;;;;4990435;28;83101;-67
2023/06/13 00:19:17;;;;;;;3.30;3.00;;;13.10;73.50;13.00;100650.00;;;;4988635;28;83919;-67
2023/06/13 00:21:45;;;;;;;3.93;3.53;;;13.00;74.00;13.00;100642.00;;;;4987233;27;82865;-68
2023/06/13 00:24:11;;;;;;;3.77;3.47;;;13.00;74.30;12.90;100638.00;;;;4987091;28;82609;-66
2023/06/13 00:26:37;;;;;;;7.53;4.07;;;13.00;74.70;12.90;100642.00;;;;4987167;28;115044;-66
2023/06/13 00:29:03;;;;;;;4.10;3.67;;;12.90;75.20;12.80;100641.00;;;;4987211;28;105125;-67
2023/06/13 00:31:29;;;;;;;3.40;2.43;;;12.80;75.90;12.70;100629.00;;;;4988767;27;107888;-66
2023/06/13 00:33:59;;;;;;;3.93;3.43;;;12.70;76.10;12.60;100633.00;;;;4985233;28;100928;-66
2023/06/13 00:36:27;;;;;;;3.87;3.53;;;12.60;76.40;12.50;100631.00;;;;4985585;28;83916;-66
2023/06/13 00:38:55;;;;;;;3.80;3.37;;;12.60;77.00;12.40;100625.00;;;;4971697;28;82932;-67
2023/06/13 00:41:20;;;;;;;3.70;3.27;;;12.50;77.00;12.40;100634.00;;;;4991408;28;83247;-65
2023/06/13 00:43:47;;;;;;;3.70;3.40;;;12.40;77.20;12.30;100625.00;;;;4984330;28;87251;-68
2023/06/13 00:46:20;;;;;;;4.67;3.40;;;12.40;77.90;12.30;100621.00;;;;4990211;28;83223;-67
2023/06/13 00:48:46;;;;;;;7.20;4.10;;;12.30;77.80;12.30;100622.00;;;;4974782;28;83277;-67
2023/06/13 00:51:12;;;;;;;4.03;3.20;;;12.30;78.10;12.20;100623.00;;;;4986626;28;83613;-67
2023/06/13 00:53:39;;;;;;;3.17;2.87;;;12.30;78.40;12.20;100624.00;;;;4988813;28;82872;-67
2023/06/13 00:56:06;;;;;;;5.07;3.70;;;12.20;78.50;12.20;100627.00;;;;4984356;27;84494;-66
2023/06/13 00:58:33;;;;;;;4.23;3.83;;;12.20;79.20;12.20;100622.00;;;;4984868;28;83765;-67
2023/06/13 01:01:02;;;;;;;3.87;3.43;;;12.20;79.70;12.10;100614.00;;;;4988633;28;83174;-66
2023/06/13 01:03:29;;;;;;;4.03;3.70;;;12.20;80.00;12.10;100615.00;;;;4969937;28;82750;-67
2023/06/13 02:04:05;;;;;;;3.97;3.57;;;11.30;86.10;11.10;100579.00;;;;4992827;28;84328;-66
2023/06/13 02:06:32;;;;;;;4.00;3.60;;;11.20;86.50;11.10;100586.00;;;;4978226;28;82595;-66
2023/06/13 02:08:58;;;;;;;4.00;3.53;;;11.20;86.90;11.10;100593.00;;;;4978908;28;82726;-67
2023/06/13 02:11:25;;;;;;;5.87;3.97;;;11.10;87.40;11.10;100600.00;;;;4971548;28;99463;-67
2023/06/13 02:13:51;;;;;;;5.43;4.37;;;11.10;87.80;11.00;100592.00;;;;4975004;28;83149;-66
2023/06/13 02:16:18;;;;;;;4.03;3.73;;;11.10;88.50;10.90;100595.00;;;;4974324;28;83110;-66
2023/06/13 02:18:47;;;;;;;4.23;3.83;;;11.00;89.00;10.80;100593.00;;;;4970725;28;82760;-67
2023/06/13 02:21:13;;;;;;;4.30;3.87;;;10.90;89.60;10.70;100593.00;;;;4970437;28;83397;-66
2023/06/13 02:23:39;;;;;;;4.93;4.43;;;10.90;90.00;10.60;100597.00;;;;4970192;28;115341;-66
2023/06/13 02:26:06;;;;;;;3.67;3.23;;;10.70;90.30;10.50;100600.00;;;;4970829;28;108811;-67
2023/06/13 02:28:32;;;;;;;4.53;4.13;;;10.70;90.50;10.50;100583.00;;;;4967719;28;83046;-67
2023/06/13 02:30:57;;;;;;;4.83;3.47;;;10.60;90.70;10.50;100598.00;;;;4972896;28;109526;-67
2023/06/13 02:33:24;;;;;;;4.23;3.57;;;10.50;90.90;10.50;100592.00;;;;4971994;28;112921;-68
2023/06/13 02:35:50;;;;;;;5.00;4.60;;;10.50;91.20;10.40;100592.00;;;;4954982;28;82910;-66
2023/06/13 02:38:22;;;;;;;4.47;4.03;;;10.50;91.50;10.30;100597.00;;;;4974978;28;110662;-66
2023/06/13 02:40:47;;;;;;;6.07;4.23;;;10.40;91.90;10.30;100596.00;;;;4970195;28;107786;-67
2023/06/13 02:43:13;;;;;;;8.20;4.20;;;10.30;92.10;10.20;100596.00;;;;4971656;28;82765;-67
2023/06/13 02:45:39;;;;;;;4.50;3.80;;;10.30;92.50;10.20;100598.00;;;;4970295;28;112301;-67
2023/06/13 02:48:05;;;;;;;6.17;4.37;;;10.30;92.70;10.20;100596.00;;;;4974830;28;108539;-67
2023/06/13 02:50:30;;;;;;;6.67;3.90;;;10.30;92.90;10.20;100598.00;;;;4970540;28;107357;-67
2023/06/13 02:52:56;;;;;;;5.70;4.40;;;10.30;93.10;10.20;100596.00;;;;4970614;28;112637;-67
2023/06/13 02:55:22;;;;;;;5.40;4.13;;;10.30;93.30;10.20;100590.00;;;;4969016;28;112306;-67
2023/06/13 02:57:48;;;;;;;5.43;4.03;;;10.30;93.50;10.20;100597.00;;;;4971622;28;82836;-67
2023/06/13 03:00:17;;;;;;;5.77;4.03;;;10.30;93.60;10.30;100598.00;;;;4970936;28;109209;-66
2023/06/13 03:02:46;;;;;;;4.87;3.70;;;10.30;93.80;10.20;100592.00;;;;4972570;28;82827;-66
2023/06/13 03:05:16;;;;;;;5.10;4.33;;;10.30;93.90;10.20;100592.00;;;;4984905;27;83332;-66
2023/06/13 03:07:46;;;;;;;4.33;3.93;;;10.30;94.10;10.20;100588.00;;;;4992831;27;83133;-66
2023/06/13 03:10:13;;;;;;;7.07;4.90;;;10.30;94.30;10.10;100588.00;;;;4989110;27;82751;-66
2023/06/13 03:12:40;;;;;;;9.03;3.60;;;10.20;94.50;10.10;100591.00;;;;4994064;27;106553;-66
2023/06/13 03:15:07;;;;;;;7.70;4.70;;;10.20;94.80;10.10;100587.00;;;;4993920;27;83377;-66
2023/06/13 03:17:33;;;;;;;7.57;4.07;;;10.10;95.10;10.10;100588.00;;;;4993403;27;82807;-68
2023/06/13 03:19:59;;;;;;;5.77;4.00;;;10.20;95.70;10.00;100576.00;;;;4966447;28;82856;-68
2023/06/13 03:22:25;;;;;;;7.13;4.43;;;10.10;96.00;10.00;100580.00;;;;4971423;28;111399;-67
2023/06/13 03:24:52;;;;;;;6.23;4.23;;;10.10;96.20;10.00;100582.00;;;;4967272;28;104810;-67
2023/06/13 03:27:18;;;;;;;11.60;5.37;;;10.00;96.30;10.00;100574.00;;;;4968983;28;82726;-67
2023/06/13 03:29:46;;;;;;;5.23;4.00;;;10.10;96.50;10.00;100576.00;;;;4969818;28;82129;-67
2023/06/13 03:32:12;;;;;;;3.67;3.33;;;10.00;96.50;10.00;100578.00;;;;4970203;28;95817;-67
2023/06/13 03:34:40;;;;;;;5.03;4.50;;;10.10;96.60;10.00;100575.00;;;;4965799;28;113501;-68
2023/06/13 03:37:09;;;;;;;3.53;2.97;;;10.00;96.70;10.00;100577.00;;;;4948450;28;83588;-67
2023/06/13 03:39:35;;;;;;;4.90;4.40;;;10.00;96.80;9.90;100583.00;;;;4945663;28;82925;-67
2023/06/13 03:42:01;;;;;;;5.03;4.07;;;10.00;96.90;9.90;100579.00;;;;4963350;28;83326;-67
2023/06/13 03:44:28;;;;;;;4.47;3.77;;;10.00;97.10;10.00;100577.00;;;;4971215;28;102593;-67
2023/06/13 03:46:55;;;;;;;5.00;3.93;;;10.00;97.30;10.00;100576.00;;;;4970775;28;97848;-66
2023/06/13 03:49:25;;;;;;;4.23;3.83;;;10.00;97.50;10.00;100575.00;;;;4967528;28;82968;-67
2023/06/13 03:51:51;;;;;;;6.73;3.97;;;10.00;97.70;10.00;100573.00;;;;4968849;28;83688;-67
2023/06/13 03:54:20;;;;;;;4.23;3.90;;;10.00;97.90;10.00;100566.00;;;;4974077;28;83773;-67
2023/06/13 03:56:45;;;;;;;4.10;3.80;;;10.00;98.10;10.10;100564.00;;;;4969881;28;82661;-67
2023/06/13 03:59:11;;;;;;;8.07;4.37;;;10.10;98.40;10.10;100564.00;;;;4965430;28;108550;-67
2023/06/13 04:01:37;;;;;;;5.07;3.83;;;10.10;98.50;10.10;100562.00;;;;4968585;28;113306;-67
2023/06/13 04:04:03;;;;;;;7.37;4.17;;;10.20;98.60;10.20;100558.00;;;;4967831;28;84361;-67
2023/06/13 04:06:29;;;;;;;5.13;4.50;;;10.20;98.70;10.30;100543.00;;;;4976144;28;101963;-67
2023/06/13 04:08:57;;;;;;;13.13;3.47;;;10.30;98.90;10.40;100552.00;;;;4971471;28;82768;-68
2023/06/13 04:11:23;;;;;;;4.70;4.20;;;10.40;99.10;10.60;100549.00;;;;4968937;28;83064;-67
2023/06/13 04:13:49;;;;;;;5.53;4.37;;;10.50;99.70;10.70;100552.00;;;;4971371;28;85960;-67
2023/06/13 04:16:15;;;;;;;4.47;4.00;;;10.60;99.40;10.90;100553.00;;;;4966249;28;82725;-68
2023/06/13 04:18:42;;;;;;;5.77;4.73;;;10.80;99.40;11.00;100562.00;;;;4968498;28;107861;-67
2023/06/13 04:21:08;;;;;;;4.17;3.67;;;10.90;99.30;11.20;100564.00;;;;4965341;28;83030;-67
2023/06/13 04:23:34;;;;;;;4.73;3.77;;;11.10;99.20;11.30;100561.00;;;;4952460;28;83183;-67
2023/06/13 04:26:05;;;;;;;9.60;4.47;;;11.20;99.10;11.40;100556.00;;;;4966663;28;83848;-68
2023/06/13 04:28:32;;;;;;;4.63;3.63;;;11.30;99.00;11.50;100558.00;;;;4958082;28;82809;-67
2023/06/13 04:31:00;;;;;;;5.50;4.60;;;11.50;99.00;11.60;100558.00;;;;4946476;28;83731;-67
2023/06/13 04:33:26;;;;;;;6.87;4.47;;;11.50;98.80;11.60;100564.00;;;;4966684;28;82919;-67
2023/06/13 04:35:53;;;;;;;4.27;3.53;;;11.50;98.80;11.70;100566.00;;;;4968556;28;82507;-67
2023/06/13 04:38:21;;;;;;;4.63;3.67;;;11.60;98.80;11.80;100569.00;;;;4965984;28;82808;-67
2023/06/13 04:40:48;;;;;;;6.27;4.20;;;11.70;98.80;11.90;100564.00;;;;4967754;28;83356;-66
2023/06/13 04:43:14;;;;;;;3.97;3.67;;;11.80;98.80;12.10;100557.00;;;;4963590;28;82770;-67
2023/06/13 04:45:43;;;;;;;6.23;3.83;;;12.00;98.80;12.20;100570.00;;;;4965736;28;82918;-66
2023/06/13 04:48:09;;;;;;;4.27;3.87;;;12.10;98.70;12.30;100565.00;;;;4967701;28;82809;-66
2023/06/13 04:50:41;;;;;;;7.00;4.57;;;12.20;98.60;12.40;100564.00;;;;4968900;28;83865;-67
2023/06/13 04:53:15;;;;;;;5.03;3.70;;;12.30;98.70;12.50;100558.00;;;;4967151;28;83614;-67
2023/06/13 04:55:42;;;;;;;3.63;3.33;;;12.40;98.60;12.60;100568.00;;;;4964161;28;82815;-67
2023/06/13 04:58:08;;;;;;;5.23;3.93;;;12.50;98.50;12.70;100558.00;;;;4967778;28;82892;-66
2023/06/13 05:00:33;;;;;;;7.40;4.67;;;12.60;98.50;12.80;100562.00;;;;4967922;28;112625;-67
2023/06/13 05:03:02;;;;;;;4.53;3.57;;;12.70;98.40;12.90;100565.00;;;;4957592;28;106293;-66
2023/06/13 05:05:28;;;;;;;5.23;3.50;;;12.80;98.30;13.00;100559.00;;;;4953524;28;82937;-67
2023/06/13 05:07:57;;;;;;;4.67;3.67;;;12.90;98.30;13.10;100569.00;;;;4962450;28;82222;-66
2023/06/13 05:10:27;;;;;;;6.30;4.13;;;13.00;98.20;13.30;100560.00;;;;4969306;28;84354;-67
2023/06/13 05:12:53;;;;;;;4.80;4.17;;;13.20;98.20;13.60;100563.00;;;;4967660;28;83265;-67
2023/06/13 05:15:23;;;;;;;6.17;3.60;;;13.50;98.20;14.00;100555.00;;;;4966188;28;83592;-68
2023/06/13 05:17:54;;;;;;;3.90;3.17;;;13.70;98.00;14.30;100553.00;;;;4956299;28;82984;-68
2023/06/13 05:20:26;;;;;;;5.43;4.10;;;14.00;97.60;14.60;100551.00;;;;4968230;28;83681;-66
2023/06/13 05:22:54;;;;;;;8.57;4.23;;;14.40;97.00;14.90;100544.00;;;;4968337;28;82841;-66
2023/06/13 05:25:20;;;;;;;3.40;3.10;;;14.70;96.50;15.20;100553.00;;;;4958552;28;83045;-67
2023/06/13 05:27:47;;;;;;;4.40;3.25;;;15.00;96.00;15.60;100548.00;;;;4949931;28;82776;-66
2023/06/13 05:30:13;;;;;;;4.85;3.67;;;15.30;95.40;15.80;100544.00;;;;4970088;28;98650;-67
2023/06/13 05:32:39;;;;;;;4.57;3.55;;;15.60;95.00;16.10;100548.00;;;;4971016;28;97515;-67
2023/06/13 05:35:08;;;;;;;5.32;3.47;;;15.80;94.40;16.30;100548.00;;;;4971695;28;82641;-67
2023/06/13 05:37:37;;;;;;;4.28;3.15;;;16.10;93.90;16.50;100550.00;;;;4973288;28;82786;-67
2023/06/13 05:40:06;;;;;;;2.92;2.72;;;16.30;93.50;16.70;100545.00;;;;4972576;28;84269;-67
2023/06/13 05:42:35;;;;;;;3.58;2.67;;;16.50;92.80;16.80;100541.00;;;;4974537;28;83855;-67
2023/06/13 05:45:08;;;;;;;3.20;2.95;;;16.70;92.30;17.00;100560.00;;;;4974716;28;104412;-67
2023/06/13 05:47:35;;;;;;;4.25;2.83;;;16.80;92.00;17.10;100549.00;;;;4970479;28;83708;-67
2023/06/13 05:50:00;;;;;;;4.63;3.38;;;17.00;91.80;17.30;100547.00;;;;4972119;28;104936;-68
2023/06/13 05:52:26;;;;;;;2.28;2.00;;;17.10;91.50;17.40;100550.00;;;;4971713;28;83131;-68
2023/06/13 05:54:53;;;;;;;3.47;2.45;;;17.20;91.10;17.60;100547.00;;;;4970788;28;82868;-67
2023/06/13 05:57:19;;;;;;;3.67;2.25;;;17.40;90.80;17.70;100544.00;;;;4974548;28;102309;-68
2023/06/13 05:59:45;;;;;;;8.32;2.90;;;17.50;90.40;17.80;100545.00;;;;4983639;28;83065;-67
2023/06/13 06:02:11;;;;;;;3.58;2.53;;;17.70;90.00;17.90;100543.00;;;;4972276;28;83948;-67
2023/06/13 06:04:37;;;;;;;3.30;2.90;;;17.80;89.00;18.00;100535.00;;;;4970437;28;83586;-67
2023/06/13 06:07:09;;;;;;;3.25;2.55;;;17.90;87.90;18.00;100538.00;;;;4973261;28;93362;-69
2023/06/13 06:09:35;;;;;;;4.05;2.92;;;17.70;86.80;18.10;100529.00;;;;4953303;28;85370;-68
2023/06/13 06:12:01;;;;;;;3.00;2.15;;;18.00;86.40;18.20;100526.00;;;;4971516;28;111265;-68
2023/06/13 06:14:26;;;;;;;4.10;2.53;;;18.10;86.00;18.40;100533.00;;;;4975724;28;110829;-68
2023/06/13 06:16:52;;;;;;;3.58;2.78;;;18.20;85.30;18.60;100521.00;;;;4957413;28;83158;-67
2023/06/13 06:19:18;;;;;;;3.90;3.10;;;18.40;85.00;18.90;100524.00;;;;4974856;28;83983;-68
2023/06/13 06:21:43;;;;;;;2.80;2.53;;;18.60;84.30;19.10;100534.00;;;;4972546;28;83354;-67
2023/06/13 06:24:09;;;;;;;3.80;2.90;;;18.90;83.30;19.40;100531.00;;;;4970898;28;111118;-67
2023/06/13 06:26:35;;;;;;;3.88;2.33;;;19.10;82.60;19.70;100536.00;;;;4971554;28;109140;-67
2023/06/13 06:29:00;;;;;;;2.67;2.35;;;19.40;81.70;20.00;100535.00;;;;4977033;28;113892;-67
2023/06/13 06:31:27;;;;;;;4.25;2.72;;;19.70;80.80;20.20;100535.00;;;;4970454;28;113965;-67
2023/06/13 06:33:53;;;;;;;3.63;2.65;;;20.00;78.80;20.40;100531.00;;;;4972905;28;82688;-66
2023/06/13 06:36:22;;;;;;;3.15;2.40;;;20.20;77.80;20.60;100534.00;;;;4973626;28;99619;-67
2023/06/13 06:38:47;;;;;;;3.60;2.42;;;20.30;77.20;20.80;100525.00;;;;4975688;28;83666;-67
2023/06/13 06:41:13;;;;;;;2.85;2.17;;;20.60;76.30;21.00;100512.00;;;;4969989;28;111940;-68
2023/06/13 06:43:39;;;;;;;2.90;2.47;;;20.80;75.20;21.30;100522.00;;;;4968762;28;110661;-68
2023/06/13 06:46:04;;;;;;;3.55;2.65;;;21.00;73.60;21.50;100523.00;;;;4963835;28;81989;-68
2023/06/13 06:48:30;;;;;;;6.05;2.53;;;21.30;72.00;21.70;100523.00;;;;4970741;28;113233;-68
2023/06/13 06:50:56;;;;;;;2.50;2.30;;;21.40;71.00;21.90;100519.00;;;;4975736;28;111338;-68
2023/06/13 06:53:21;;;;;;;2.80;2.58;;;21.60;69.90;22.00;100520.00;;;;4974761;28;83780;-68
2023/06/13 06:55:47;;;;;;;3.65;2.53;;;21.80;68.90;22.20;100514.00;;;;4975041;28;108178;-68
2023/06/13 06:58:13;;;;;;;2.75;2.10;;;21.70;67.40;22.30;100507.00;;;;4969006;28;113652;-68
2023/06/13 07:00:38;;;;;;;2.45;2.03;;;22.00;65.90;22.50;100504.00;;;;4977891;28;111324;-68
2023/06/13 07:03:04;;;;;;;2.90;2.05;;;22.30;65.80;22.70;100512.00;;;;4974722;28;82835;-68
2023/06/13 07:05:30;;;;;;;3.30;2.03;;;22.50;66.00;23.10;100509.00;;;;4970853;28;85650;-69
2023/06/13 07:07:55;;;;;;;2.55;1.77;;;22.80;64.90;23.30;100506.00;;;;4973243;28;111962;-67
2023/06/13 07:10:21;;;;;;;4.28;2.55;;;23.00;63.00;23.40;100502.00;;;;4969572;28;112146;-68
2023/06/13 07:12:47;;;;;;;2.78;2.55;;;23.20;62.10;23.60;100500.00;;;;4971975;28;82858;-68
2023/06/13 07:15:12;;;;;;;3.95;2.50;;;23.40;61.80;23.90;100496.00;;;;4976666;28;109001;-69
2023/06/13 07:17:38;;;;;;;4.32;2.42;;;23.60;61.70;24.30;100497.00;;;;4972936;28;102735;-67
2023/06/13 07:20:05;;;;;;;2.72;2.13;;;24.00;61.10;24.70;100504.00;;;;4969215;28;89271;-67
2023/06/13 07:22:31;;;;;;;2.88;2.25;;;24.30;59.90;25.00;100500.00;;;;4969492;28;83515;-68
2023/06/13 07:24:57;;;;;;;2.45;2.25;;;24.60;58.60;25.20;100496.00;;;;4970903;28;82676;-68
2023/06/13 07:27:22;;;;;;;3.75;1.30;;;24.90;57.10;25.30;100488.00;;;;4969237;28;113058;-67
2023/06/13 07:29:48;;;;;;;2.03;1.60;;;25.00;56.40;25.30;100492.00;;;;4965834;28;112123;-68
2023/06/13 07:32:14;;;;;;;8.20;1.83;;;25.10;55.60;25.40;100494.00;;;;4974249;28;110377;-68
2023/06/13 07:34:40;;;;;;;6.22;1.80;;;25.20;55.20;25.50;100487.00;;;;4969254;28;82048;-68
2023/06/13 07:37:06;;;;;;;1.52;1.42;;;25.30;55.00;25.70;100490.00;;;;4969105;28;83676;-68
2023/06/13 07:39:31;;;;;;;2.40;1.73;;;25.30;55.00;25.90;100490.00;;;;4969833;28;111584;-67
2023/06/13 07:41:57;;;;;;;3.03;2.10;;;25.60;54.60;26.00;100491.00;;;;4970631;28;108882;-67
2023/06/13 07:44:23;;;;;;;2.10;1.83;;;25.70;54.00;26.20;100489.00;;;;4966647;28;99735;-67
2023/06/13 07:46:49;;;;;;;2.13;1.38;;;25.90;53.40;26.40;100488.00;;;;4973274;28;111462;-67
2023/06/13 07:49:14;;;;;;;1.75;1.48;;;26.10;52.70;26.50;100486.00;;;;4967064;28;82979;-68
2023/06/13 07:51:40;;;;;;;1.70;1.40;;;26.20;52.30;26.70;100488.00;;;;4965885;28;110288;-69
2023/06/13 07:54:06;;;;;;;2.35;1.77;;;26.40;51.90;26.70;100492.00;;;;4971571;28;86311;-70
2023/06/13 07:56:32;;;;;;;1.67;1.48;;;26.40;51.60;26.80;100492.00;;;;4970005;28;111644;-70
2023/06/13 07:58:58;;;;;;;1.55;1.45;;;26.50;51.60;27.00;100494.00;;;;4969427;28;83835;-70
2023/06/13 08:01:24;;;;;;;2.55;1.17;;;26.60;51.60;27.20;100495.00;;;;4969476;28;109538;-72
2023/06/13 08:03:50;;;;;;;2.05;1.60;;;26.80;51.30;27.40;100489.00;;;;4946432;28;82822;-70
2023/06/13 08:06:16;;;;;;;3.40;1.40;;;27.10;50.60;27.60;100494.00;;;;4971082;28;114224;-70
2023/06/13 08:08:41;;;;;;;2.20;1.50;;;27.20;49.60;27.70;100487.00;;;;4973815;28;84654;-72
2023/06/13 08:11:07;;;;;;;3.15;1.95;;;27.40;48.70;27.80;100482.00;;;;4972285;28;86410;-72
2023/06/13 08:13:33;;;;;;;3.85;1.98;;;27.50;48.20;27.80;100490.00;;;;4950834;28;109813;-71
2023/06/13 08:16:01;;;;;;;1.83;1.48;;;27.50;46.70;27.70;100496.00;;;;4970693;28;110425;-71
2023/06/13 08:18:27;;;;;;;2.05;1.88;;;27.50;46.60;27.70;100497.00;;;;4969668;28;83898;-69
2023/06/13 08:20:52;;;;;;;3.13;2.38;;;27.50;46.60;27.80;100486.00;;;;4974232;28;83032;-69
2023/06/13 08:23:18;;;;;;;5.43;2.60;;;27.50;46.70;27.90;100484.00;;;;4969126;28;108349;-69
2023/06/13 08:25:44;;;;;;;2.85;1.52;;;27.60;46.70;28.00;100491.00;;;;4970259;28;83912;-69
2023/06/13 08:28:11;;;;;;;6.63;2.00;;;27.70;46.50;28.10;100486.00;;;;4971777;28;83451;-69
2023/06/13 08:30:37;;;;;;;3.17;1.70;;;27.80;46.40;28.30;100492.00;;;;4968698;28;83578;-70
2023/06/13 08:33:03;;;;;;;1.83;1.60;;;27.90;46.20;28.40;100479.00;;;;4967463;28;108513;-71
2023/06/13 08:35:30;;;;;;;2.90;1.58;;;28.00;45.90;28.40;100482.00;;;;4940443;28;85177;-71
2023/06/13 08:37:56;;;;;;;2.63;1.90;;;28.10;45.10;28.40;100482.00;;;;4968597;28;82996;-70
2023/06/13 08:40:22;;;;;;;2.85;1.55;;;28.10;44.90;28.50;100479.00;;;;4971534;28;90225;-70
2023/06/13 08:42:48;;;;;;;1.90;1.48;;;28.20;44.80;28.50;100482.00;;;;4972855;28;109222;-72
2023/06/13 08:45:14;;;;;;;2.42;2.22;;;28.50;44.90;28.60;100479.00;;;;4967489;28;83500;-70
2023/06/13 08:47:46;;;;;;;1.60;1.45;;;28.30;44.80;28.80;100474.00;;;;4967185;28;84595;-72
2023/06/13 08:50:18;;;;;;;3.30;1.80;;;28.40;44.40;29.10;100476.00;;;;4968475;28;82805;-70
2023/06/13 08:52:47;;;;;;;6.60;1.75;;;28.70;44.10;29.30;100477.00;;;;4968440;28;82783;-68
2023/06/13 08:55:15;;;;;;;3.90;1.77;;;28.90;43.20;29.30;100472.00;;;;4967036;28;84641;-70
2023/06/13 08:57:47;;;;;;;2.10;1.70;;;29.00;42.70;29.30;100483.00;;;;4967312;28;86735;-70
2023/06/13 09:00:15;;;;;;;2.50;1.77;;;29.00;42.20;29.30;100476.00;;;;4967485;28;82786;-72
2023/06/13 09:02:43;;;;;;;2.25;1.38;;;29.00;41.20;29.00;100476.00;;;;4952870;28;82793;-70
2023/06/13 09:05:13;;;;;;;3.20;2.20;;;28.80;41.20;28.80;100477.00;;;;4958831;28;84936;-69
2023/06/13 09:07:40;;;;;;;1.98;1.65;;;28.60;41.50;28.70;100472.00;;;;4976566;28;83028;-72
2023/06/13 09:10:10;;;;;;;5.40;2.30;;;28.50;41.60;28.70;100470.00;;;;4959907;28;82961;-71
2023/06/13 09:12:37;;;;;;;1.50;1.40;;;28.40;41.70;28.70;100476.00;;;;4977594;28;82521;-71
2023/06/13 09:15:03;;;;;;;2.65;2.20;;;28.40;42.50;28.80;100465.00;;;;4963423;28;83621;-72
2023/06/13 09:17:29;;;;;;;2.17;1.98;;;28.40;41.70;28.90;100473.00;;;;4971317;28;101831;-72
2023/06/13 09:19:55;;;;;;;1.88;1.73;;;28.50;41.60;29.10;100466.00;;;;4977141;27;84848;-72
2023/06/13 09:22:21;;;;;;;3.30;2.20;;;28.60;40.90;29.30;100471.00;;;;4975584;28;108963;-70
2023/06/13 09:24:47;;;;;;;5.53;2.45;;;28.80;40.30;29.30;100465.00;;;;4977272;28;111869;-70
2023/06/13 09:27:14;;;;;;;2.85;1.88;;;28.90;39.30;29.30;100463.00;;;;4951801;28;87494;-69
2023/06/13 09:29:39;;;;;;;2.15;1.75;;;28.90;37.90;29.20;100465.00;;;;4972021;28;83485;-70
2023/06/13 09:32:10;;;;;;;2.28;1.50;;;28.80;36.60;29.00;100476.00;;;;4973220;28;108123;-70
2023/06/13 09:34:38;;;;;;;3.22;1.60;;;28.70;36.30;28.80;100471.00;;;;4971006;28;83783;-71
2023/06/13 09:37:07;;;;;;;2.67;1.70;;;28.50;36.00;28.70;100465.00;;;;4973232;28;83476;-70
2023/06/13 09:39:33;;;;;;;9.38;1.73;;;28.40;35.30;28.60;100467.00;;;;4974639;28;82694;-73
2023/06/13 09:42:01;;;;;;;1.63;1.23;;;28.30;35.60;28.60;100462.00;;;;4936256;28;87382;-72
2023/06/13 09:44:32;;;;;;;1.77;1.42;;;28.30;35.70;28.70;100461.00;;;;4957196;28;84960;-71
2023/06/13 09:46:58;;;;;;;2.50;2.03;;;28.30;35.60;28.60;100463.00;;;;4974999;28;84287;-71
2023/06/13 09:49:30;;;;;;;2.28;1.75;;;28.30;35.80;28.70;100468.00;;;;4970723;28;82839;-72
2023/06/13 09:52:00;;;;;;;5.75;1.83;;;28.30;35.50;28.90;100472.00;;;;4978279;28;82727;-71
2023/06/13 09:54:29;;;;;;;2.28;2.08;;;28.40;35.50;29.00;100459.00;;;;4976139;28;84016;-71
2023/06/13 09:56:56;;;;;;;1.40;1.30;;;28.50;35.30;29.10;100469.00;;;;4972023;28;83988;-73
2023/06/13 09:59:22;;;;;;;3.10;1.63;;;28.70;35.10;29.20;100462.00;;;;4972727;28;82848;-70
2023/06/13 10:01:48;;;;;;;5.03;1.33;;;28.70;34.10;29.30;100467.00;;;;4974851;28;108404;-70
2023/06/13 10:04:15;;;;;;;2.33;1.73;;;28.80;33.30;29.30;100469.00;;;;4972452;28;82798;-71
2023/06/13 10:06:44;;;;;;;2.13;1.92;;;28.80;33.50;29.50;100470.00;;;;4972824;28;83041;-71
2023/06/13 10:09:12;;;;;;;2.30;2.08;;;29.00;34.00;29.70;100463.00;;;;4958686;28;83819;-71
2023/06/13 10:11:46;;;;;;;6.28;2.25;;;29.20;34.30;29.80;100472.00;;;;4972004;28;82825;-72
2023/06/13 10:14:20;;;;;;;3.88;2.22;;;29.20;33.80;29.80;100466.00;;;;4953450;28;103127;-71
2023/06/13 10:16:50;;;;;;;2.35;1.98;;;29.30;33.30;29.70;100462.00;;;;4954936;28;101315;-71
2023/06/13 10:19:19;;;;;;;2.95;1.92;;;29.30;33.60;29.70;100463.00;;;;4965934;28;83021;-70
2023/06/13 10:21:47;;;;;;;2.60;1.90;;;29.20;33.80;29.80;100468.00;;;;4973439;28;82674;-72
2023/06/13 10:24:15;;;;;;;4.10;2.00;;;29.30;34.00;29.90;100472.00;;;;4955412;28;84489;-71
2023/06/13 10:26:44;;;;;;;3.45;1.77;;;29.30;33.70;29.90;100461.00;;;;4972739;28;83234;-71
2023/06/13 10:29:43;;;;;;;3.58;1.63;;;29.40;33.80;30.00;100463.00;;;;4974426;28;83002;-72
2023/06/13 10:32:42;;;;;;;3.97;1.65;;;29.40;33.70;30.10;100467.00;;;;4972474;28;82886;-72
2023/06/13 10:35:36;;;;;;;1.90;1.67;;;29.50;33.20;30.30;100462.00;;;;4968459;28;97833;-72
2023/06/13 10:38:29;;;;;;;2.38;1.45;;;29.70;32.50;30.50;100472.00;;;;4954341;28;104395;-71
2023/06/13 10:41:07;;;;;;;2.40;1.85;;;29.90;32.00;30.50;100475.00;;;;4975167;28;82652;-70
2023/06/13 10:43:53;;;;;;;2.58;1.83;;;29.90;31.80;30.50;100474.00;;;;4941951;28;103210;-70
2023/06/13 10:46:19;;;;;;;4.10;1.85;;;30.00;31.50;30.50;100470.00;;;;4972279;28;82927;-71
2023/06/13 10:48:51;;;;;;;1.77;1.67;;;29.90;31.40;30.70;100461.00;;;;4959308;28;112472;-70
2023/06/13 10:51:25;;;;;;;1.17;1.08;;;30.00;32.00;31.00;100474.00;;;;4975817;28;82463;-69
2023/06/13 10:54:06;;;;;;;1.38;1.27;;;30.20;30.70;31.10;100481.00;;;;4973711;28;81807;-70
2023/06/13 10:56:34;;;;;;;1.40;1.30;;;30.50;29.70;31.20;100477.00;;;;4969746;28;82745;-71
2023/06/13 10:59:06;;;;;;;2.42;1.35;;;30.60;29.00;30.90;100468.00;;;;4959977;28;83005;-70
2023/06/13 11:01:35;;;;;;;2.83;1.23;;;30.40;28.30;30.70;100468.00;;;;4970165;28;102014;-70
2023/06/13 11:04:14;;;;;;;2.22;1.30;;;30.20;29.10;30.90;100459.00;;;;4954402;28;82720;-72
2023/06/13 11:06:45;;;;;;;1.15;0.90;;;30.20;29.40;31.20;100461.00;;;;4957354;28;83195;-70
2023/06/13 11:09:16;;;;;;;2.05;1.42;;;30.50;29.20;31.20;100458.00;;;;4973910;28;82869;-69
2023/06/13 11:12:00;;;;;;;1.85;1.23;;;30.60;29.40;31.50;100455.00;;;;4975131;28;82983;-71
2023/06/13 11:14:33;;;;;;;1.48;1.38;;;30.80;29.60;31.80;100452.00;;;;4953444;28;83321;-69
2023/06/13 11:16:58;;;;;;;1.20;1.10;;;31.10;29.70;32.00;100461.00;;;;4969610;28;85282;-70
2023/06/13 11:19:27;;;;;;;2.05;1.70;;;31.30;29.10;31.90;100462.00;;;;4968897;28;101591;-72
2023/06/13 11:21:59;;;;;;;1.55;1.42;;;31.30;28.80;31.90;100456.00;;;;4967133;28;83052;-70
2023/06/13 11:24:27;;;;;;;1.58;1.45;;;31.30;29.40;32.20;100452.00;;;;4975062;28;82800;-72
2023/06/13 11:26:57;;;;;;;1.67;1.42;;;31.50;29.00;32.20;100448.00;;;;4969372;28;84905;-70
2023/06/13 11:29:23;;;;;;;3.90;1.83;;;31.60;28.80;32.10;100459.00;;;;4957775;28;82889;-69
2023/06/13 11:31:52;;;;;;;1.60;1.48;;;31.50;28.30;32.00;100450.00;;;;4971178;28;82916;-70
2023/06/13 11:34:23;;;;;;;1.88;1.40;;;31.50;28.10;32.10;100446.00;;;;4970649;28;92815;-70
2023/06/13 11:36:50;;;;;;;1.38;0.90;;;31.50;28.70;32.40;100445.00;;;;4951198;28;82754;-71
2023/06/13 11:39:30;;;;;;;1.75;1.27;;;31.60;29.20;32.40;100451.00;;;;4967126;28;105901;-69
2023/06/13 11:41:57;;;;;;;1.73;0.90;;;31.80;29.00;32.30;100436.00;;;;4956183;28;100783;-71
2023/06/13 11:44:23;;;;;;;1.58;1.10;;;31.70;28.70;32.10;100447.00;;;;4971436;28;82058;-71
2023/06/13 11:46:50;;;;;;;1.90;1.25;;;31.60;28.80;31.80;100454.00;;;;4971339;28;83535;-71